createdAt,value
2018-05-25T00:01:17.235Z,95196.27
2018-05-25T00:03:43.231Z,95184.42
2018-05-25T00:06:09.233Z,95190.34
2018-05-25T00:08:35.206Z,95190.52
2018-05-25T00:11:01.191Z,95190.92
2018-05-25T00:13:27.181Z,95197.82
2018-05-25T00:15:53.168Z,95187.34
2018-05-25T00:18:19.157Z,95187.75
2018-05-25T00:20:45.136Z,95193.88
2018-05-25T00:23:11.126Z,95192.50
2018-05-25T00:25:37.107Z,95194.25
2018-05-25T00:28:03.090Z,95198.99
2018-05-25T00:30:29.167Z,95194.05
2018-05-25T00:32:55.150Z,95197.78
2018-05-25T00:35:21.127Z,95196.80
2018-05-25T00:37:47.118Z,95198.19
2018-05-25T00:40:13.108Z,95196.00
2018-05-25T00:42:39.093Z,95199.16
2018-05-25T00:45:05.081Z,95199.56
2018-05-25T00:47:31.060Z,95191.86
2018-05-25T00:49:57.044Z,95201.11
2018-05-25T00:52:23.023Z,95194.22
2018-05-25T00:54:49.002Z,95188.69
2018-05-25T00:57:14.981Z,95192.06
2018-05-25T00:59:40.966Z,95187.92
2018-05-25T01:02:06.957Z,95188.89
2018-05-25T01:04:32.969Z,95189.87
2018-05-25T01:06:58.950Z,95188.89
2018-05-25T01:09:24.932Z,95185.73
2018-05-25T01:11:50.932Z,95183.94
2018-05-25T01:14:16.921Z,95180.38
2018-05-25T01:16:42.909Z,95180.20
2018-05-25T01:19:08.888Z,95181.19
2018-05-25T01:21:34.866Z,95179.00
2018-05-25T01:24:00.844Z,95179.00
2018-05-25T01:26:26.824Z,95176.06
2018-05-25T01:28:52.801Z,95175.86
2018-05-25T01:31:18.792Z,95174.48
2018-05-25T01:33:44.772Z,95174.08
2018-05-25T01:36:10.792Z,95175.45
2018-05-25T01:38:36.770Z,95178.22
2018-05-25T01:41:02.752Z,95177.81
2018-05-25T01:43:28.735Z,95183.34
2018-05-25T01:45:54.718Z,95178.22
2018-05-25T01:48:20.707Z,95174.25
2018-05-25T01:50:46.690Z,95175.63
2018-05-25T01:53:12.677Z,95182.13
2018-05-25T01:55:38.665Z,95181.15
2018-05-25T01:58:04.657Z,95185.29
2018-05-25T02:00:30.644Z,95190.00
2018-05-25T02:02:56.629Z,95186.47
2018-05-25T02:05:22.613Z,95184.11
2018-05-25T02:07:48.594Z,95184.11
2018-05-25T02:10:14.573Z,95183.70
2018-05-25T02:12:40.558Z,95186.47
2018-05-25T02:15:06.545Z,95186.87
2018-05-25T02:17:32.527Z,95183.30
2018-05-25T02:19:58.519Z,95181.11
2018-05-25T02:22:24.495Z,95186.63
2018-05-25T02:24:50.476Z,95187.61
2018-05-25T02:27:16.459Z,95186.63
2018-05-25T02:29:42.445Z,95185.25
2018-05-25T02:32:08.426Z,95190.77
2018-05-25T02:34:34.404Z,95185.83
2018-05-25T02:37:00.386Z,95184.84
2018-05-25T02:39:26.374Z,95190.97
2018-05-25T02:41:52.362Z,95192.73
2018-05-25T02:44:18.348Z,95190.37
2018-05-25T02:46:44.327Z,95189.19
2018-05-25T02:49:10.308Z,95197.06
2018-05-25T02:51:36.299Z,95188.78
2018-05-25T02:54:02.281Z,95192.92
2018-05-25T02:56:28.266Z,95197.47
2018-05-25T02:58:54.252Z,95199.02
2018-05-25T03:01:20.232Z,95193.50
2018-05-25T03:03:46.217Z,95196.66
2018-05-25T03:06:12.214Z,95197.23
2018-05-25T03:08:38.201Z,95200.80
2018-05-25T03:11:04.188Z,95200.97
2018-05-25T03:13:30.168Z,95210.63
2018-05-25T03:15:56.149Z,95206.49
2018-05-25T03:18:22.123Z,95205.11
2018-05-25T03:20:48.105Z,95208.47
2018-05-25T03:23:14.081Z,95200.59
2018-05-25T03:25:40.072Z,95205.71
2018-05-25T03:28:06.045Z,95204.73
2018-05-25T03:30:32.032Z,95207.67
2018-05-25T03:32:58.016Z,95212.61
2018-05-25T03:35:23.985Z,95211.80
2018-05-25T03:37:49.972Z,95217.16
2018-05-25T03:40:15.948Z,95207.67
2018-05-25T03:42:41.926Z,95214.56
2018-05-25T03:45:07.910Z,95219.28
2018-05-25T03:47:33.890Z,95220.09
2018-05-25T03:49:59.899Z,95220.13
2018-05-25T03:52:25.874Z,95223.49
2018-05-25T03:54:51.869Z,95222.31
2018-05-25T03:57:17.869Z,95218.74
2018-05-25T03:59:43.851Z,95221.91
2018-05-25T04:02:09.831Z,95226.62
2018-05-25T04:04:35.811Z,95229.37
2018-05-25T04:07:01.802Z,95227.83
2018-05-25T04:09:27.780Z,95231.97
2018-05-25T04:11:53.765Z,95229.37
2018-05-25T04:14:19.793Z,95228.61
2018-05-25T04:16:45.771Z,95229.99
2018-05-25T04:19:11.782Z,95226.66
2018-05-25T04:21:37.766Z,95228.64
2018-05-25T04:24:03.760Z,95224.13
2018-05-25T04:26:29.737Z,95223.33
2018-05-25T04:28:55.728Z,95228.08
2018-05-25T04:31:21.713Z,95228.31
2018-05-25T04:33:47.694Z,95227.13
2018-05-25T04:36:13.678Z,95226.97
2018-05-25T04:38:39.673Z,95232.48
2018-05-25T04:41:05.689Z,95235.42
2018-05-25T04:43:31.664Z,95227.74
2018-05-25T04:45:57.655Z,95226.16
2018-05-25T04:48:23.641Z,95228.52
2018-05-25T04:50:49.623Z,95226.16
2018-05-25T04:53:15.615Z,95230.70
2018-05-25T04:55:41.623Z,95234.03
2018-05-25T04:58:07.631Z,95229.49
2018-05-25T05:00:33.582Z,95229.32
2018-05-25T05:02:59.579Z,95224.54
2018-05-25T05:05:25.566Z,95233.23
2018-05-25T05:07:51.549Z,95229.89
2018-05-25T05:10:17.528Z,95236.39
2018-05-25T05:12:43.511Z,95223.80
2018-05-25T05:15:09.497Z,95220.64
2018-05-25T05:17:35.495Z,95224.78
2018-05-25T05:20:01.591Z,95223.97
2018-05-25T05:22:27.600Z,95226.73
2018-05-25T05:24:53.558Z,95224.17
2018-05-25T05:27:19.544Z,95219.83
2018-05-25T05:29:45.527Z,95230.06
2018-05-25T05:32:11.659Z,95231.44
2018-05-25T05:34:37.659Z,95236.19
2018-05-25T05:37:03.740Z,95240.13
2018-05-25T05:39:29.705Z,95233.83
2018-05-25T05:41:55.715Z,95235.78
2018-05-25T05:44:21.700Z,95231.64
2018-05-25T05:46:47.690Z,95243.09
2018-05-25T05:49:13.664Z,95243.49
2018-05-25T05:51:39.693Z,95250.77
2018-05-25T05:54:05.663Z,95249.39
2018-05-25T05:56:31.674Z,95245.04
2018-05-25T05:58:57.661Z,95242.69
2018-05-25T06:01:23.648Z,95244.87
2018-05-25T06:03:49.631Z,95245.45
2018-05-25T06:06:15.618Z,95246.02
2018-05-25T06:08:41.699Z,95246.99
2018-05-25T06:11:07.722Z,95247.97
2018-05-25T06:13:33.707Z,95250.36
2018-05-25T06:15:59.686Z,95251.91
2018-05-25T06:18:25.680Z,95250.69
2018-05-25T06:20:51.668Z,95249.31
2018-05-25T06:23:17.651Z,95254.45
2018-05-25T06:25:43.679Z,95247.16
2018-05-25T06:28:09.681Z,95249.11
2018-05-25T06:30:35.654Z,95242.20
2018-05-25T06:33:01.760Z,95242.78
2018-05-25T06:35:27.753Z,95244.16
2018-05-25T06:37:53.788Z,95251.50
2018-05-25T06:40:19.760Z,95250.52
2018-05-25T06:42:45.743Z,95245.58
2018-05-25T06:45:11.726Z,95241.67
2018-05-25T06:47:37.707Z,95238.71
2018-05-25T06:50:03.700Z,95233.59
2018-05-25T06:52:29.678Z,95231.64
2018-05-25T06:54:55.683Z,95238.14
2018-05-25T06:57:21.663Z,95239.35
2018-05-25T06:59:47.652Z,95233.42
2018-05-25T07:02:13.641Z,95231.44
2018-05-25T07:04:39.766Z,95235.82
2018-05-25T07:07:05.747Z,95231.68
2018-05-25T07:09:31.872Z,95233.46
2018-05-25T07:11:57.827Z,95231.11
2018-05-25T07:14:23.813Z,95229.73
2018-05-25T07:16:49.874Z,95226.97
2018-05-25T07:19:15.885Z,95224.38
2018-05-25T07:21:41.923Z,95226.97
2018-05-25T07:24:07.914Z,95227.54
2018-05-25T07:26:33.896Z,95221.82
2018-05-25T07:28:59.881Z,95219.06
2018-05-25T07:31:25.856Z,95219.86
2018-05-25T07:33:51.841Z,95222.05
2018-05-25T07:36:17.823Z,95223.60
2018-05-25T07:38:43.820Z,95221.82
2018-05-25T07:41:09.842Z,95225.18
2018-05-25T07:43:35.818Z,95222.02
2018-05-25T07:46:01.800Z,95219.26
2018-05-25T07:48:27.786Z,95211.95
2018-05-25T07:50:53.805Z,95210.73
2018-05-25T07:53:19.784Z,95213.50
2018-05-25T07:55:45.768Z,95210.57
2018-05-25T07:58:11.757Z,95211.38
2018-05-25T08:00:37.750Z,95208.63
2018-05-25T08:03:03.719Z,95206.64
2018-05-25T08:05:29.727Z,95207.84
2018-05-25T08:07:55.728Z,95204.69
2018-05-25T08:10:21.722Z,95205.70
2018-05-25T08:12:47.713Z,95201.55
2018-05-25T08:15:13.731Z,95204.92
2018-05-25T08:17:39.723Z,95207.04
2018-05-25T08:20:05.727Z,95207.24
2018-05-25T08:22:31.762Z,95201.48
2018-05-25T08:24:57.732Z,95200.30
2018-05-25T08:27:23.725Z,95193.00
2018-05-25T08:29:49.708Z,95194.55
2018-05-25T08:32:15.714Z,95198.92
2018-05-25T08:34:41.701Z,95195.35
2018-05-25T08:37:07.673Z,95200.10
2018-05-25T08:39:33.685Z,95197.34
2018-05-25T08:41:59.670Z,95190.84
2018-05-25T08:44:25.651Z,95199.94
2018-05-25T08:46:51.686Z,95201.72
2018-05-25T08:49:17.625Z,95197.58
2018-05-25T08:51:43.611Z,95196.97
2018-05-25T08:54:09.678Z,95201.89
2018-05-25T08:56:35.665Z,95200.74
2018-05-25T08:59:01.652Z,95198.36
2018-05-25T09:01:27.673Z,95198.55
2018-05-25T09:03:53.654Z,95195.59
2018-05-25T09:06:19.635Z,95192.83
2018-05-25T09:08:45.612Z,95190.87
2018-05-25T09:11:11.627Z,95190.48
2018-05-25T09:13:37.604Z,95190.87
2018-05-25T09:16:03.588Z,95192.09
2018-05-25T09:18:29.566Z,95189.73
2018-05-25T09:20:55.556Z,95183.20
2018-05-25T09:23:21.543Z,95190.75
2018-05-25T09:25:47.525Z,95187.98
2018-05-25T09:28:13.511Z,95182.47
2018-05-25T09:30:39.488Z,95183.04
2018-05-25T09:33:05.468Z,95181.25
2018-05-25T09:35:31.455Z,95178.49
2018-05-25T09:37:57.426Z,95176.30
2018-05-25T09:40:23.407Z,95178.29
2018-05-25T09:42:49.383Z,95175.93
2018-05-25T09:45:15.396Z,95175.90
2018-05-25T09:47:41.402Z,95179.44
2018-05-25T09:50:07.376Z,95170.98
2018-05-25T09:52:33.353Z,95167.21
2018-05-25T09:54:59.331Z,95164.05
2018-05-25T09:57:25.317Z,95159.91
2018-05-25T09:59:51.308Z,95158.93
2018-05-25T10:02:17.302Z,95154.79
2018-05-25T10:04:43.313Z,95156.74
2018-05-25T10:07:09.296Z,95157.31
2018-05-25T10:09:35.293Z,95149.84
2018-05-25T10:12:01.282Z,95146.11
2018-05-25T10:14:27.255Z,95137.99
2018-05-25T10:16:53.242Z,95136.81
2018-05-25T10:19:19.286Z,95146.07
2018-05-25T10:21:45.264Z,95135.06
2018-05-25T10:24:11.246Z,95133.69
2018-05-25T10:26:37.222Z,95127.59
2018-05-25T10:29:03.310Z,95122.44
2018-05-25T10:31:29.291Z,95127.96
2018-05-25T10:33:55.288Z,95129.58
2018-05-25T10:36:21.268Z,95123.48
2018-05-25T10:38:47.253Z,95126.62
2018-05-25T10:41:13.276Z,95130.19
2018-05-25T10:43:39.203Z,95128.40
2018-05-25T10:46:05.179Z,95139.27
2018-05-25T10:48:31.160Z,95130.98
2018-05-25T10:50:57.150Z,95125.23
2018-05-25T10:53:23.153Z,95124.66
2018-05-25T10:55:49.177Z,95121.09
2018-05-25T10:58:15.173Z,95123.69
2018-05-25T11:00:41.157Z,95122.51
2018-05-25T11:03:07.150Z,95120.92
2018-05-25T11:05:33.196Z,95122.30
2018-05-25T11:07:59.187Z,95122.14
2018-05-25T11:10:25.225Z,95120.35
2018-05-25T11:12:51.205Z,95113.45
2018-05-25T11:15:17.208Z,95115.23
2018-05-25T11:17:43.218Z,95117.80
2018-05-25T11:20:09.215Z,95113.86
2018-05-25T11:22:35.199Z,95115.61
2018-05-25T11:25:01.185Z,95110.48
2018-05-25T11:27:27.178Z,95125.50
2018-05-25T11:29:53.228Z,95127.09
2018-05-25T11:32:19.214Z,95114.26
2018-05-25T11:34:45.256Z,95121.16
2018-05-25T11:37:11.267Z,95111.53
2018-05-25T11:39:37.247Z,95115.09
2018-05-25T11:42:03.234Z,95114.36
2018-05-25T11:44:29.241Z,95118.27
2018-05-25T11:46:55.229Z,95122.58
2018-05-25T11:49:21.210Z,95118.27
2018-05-25T11:51:47.200Z,95122.41
2018-05-25T11:54:13.212Z,95117.45
2018-05-25T11:56:39.203Z,95126.52
2018-05-25T11:59:05.183Z,95126.88
2018-05-25T12:01:31.160Z,95138.50
2018-05-25T12:03:57.147Z,95152.50
2018-05-25T12:06:23.147Z,95148.73
2018-05-25T12:08:49.161Z,95151.86
2018-05-25T12:11:15.137Z,95160.15
2018-05-25T12:13:41.114Z,95177.52
2018-05-25T12:16:07.109Z,95190.55
2018-05-25T12:18:33.096Z,95183.28
2018-05-25T12:20:59.115Z,95188.06
2018-05-25T12:23:25.063Z,95192.60
2018-05-25T12:25:51.064Z,95184.52
2018-05-25T12:28:17.255Z,95181.56
2018-05-25T12:30:43.243Z,95193.78
2018-05-25T12:33:09.259Z,95197.35
2018-05-25T12:35:35.260Z,95188.91
2018-05-25T12:38:01.250Z,95184.39
2018-05-25T12:40:27.305Z,95178.46
2018-05-25T12:42:53.244Z,95170.38
2018-05-25T12:45:19.230Z,95176.14
2018-05-25T12:47:45.220Z,95169.03
2018-05-25T12:50:11.226Z,95172.98
2018-05-25T12:52:37.198Z,95167.25
2018-05-25T12:55:03.187Z,95172.74
2018-05-25T12:57:29.208Z,95166.88
2018-05-25T12:59:55.210Z,95165.27
2018-05-25T13:02:21.226Z,95164.86
2018-05-25T13:04:47.213Z,95167.22
2018-05-25T13:07:13.207Z,95166.84
2018-05-25T13:09:39.192Z,95164.09
2018-05-25T13:12:05.197Z,95161.09
2018-05-25T13:14:31.181Z,95167.99
2018-05-25T13:16:57.171Z,95166.44
2018-05-25T13:19:23.163Z,95167.63
2018-05-25T13:21:49.803Z,95167.66
2018-05-25T13:24:15.771Z,95164.73
2018-05-25T13:26:41.750Z,95168.66
2018-05-25T13:29:07.737Z,95165.73
2018-05-25T13:31:33.743Z,95167.55
2018-05-25T13:33:59.716Z,95170.12
2018-05-25T13:36:25.696Z,95170.89
2018-05-25T13:38:51.748Z,95168.36
2018-05-25T13:41:17.769Z,95171.70
2018-05-25T13:43:43.762Z,95159.07
2018-05-25T13:46:09.995Z,95161.49
2018-05-25T13:48:35.980Z,95154.80
2018-05-25T13:51:01.977Z,95148.47
2018-05-25T13:53:27.961Z,95155.77
2018-05-25T13:55:53.940Z,95164.05
2018-05-25T13:58:19.939Z,95172.53
2018-05-25T14:00:45.924Z,95168.94
2018-05-25T14:03:11.906Z,95181.94
2018-05-25T14:05:37.891Z,95173.05
2018-05-25T14:08:03.896Z,95182.95
2018-05-25T14:10:29.886Z,95181.94
2018-05-25T14:12:55.873Z,95178.73
2018-05-25T14:15:21.860Z,95180.31
2018-05-25T14:17:47.878Z,95183.66
2018-05-25T14:20:13.875Z,95183.05
2018-05-25T14:22:39.936Z,95185.20
2018-05-25T14:25:05.893Z,95188.80
2018-05-25T14:27:31.871Z,95185.23
2018-05-25T14:29:57.867Z,95190.19
2018-05-25T14:32:23.908Z,95191.56
2018-05-25T14:34:49.903Z,95196.68
2018-05-25T14:37:15.890Z,95195.30
2018-05-25T14:39:41.874Z,95193.75
2018-05-25T14:42:07.865Z,95192.58
2018-05-25T14:44:33.896Z,95185.67
2018-05-25T14:46:59.879Z,95186.08
2018-05-25T14:49:25.868Z,95183.55
2018-05-25T14:51:51.892Z,95184.16
2018-05-25T14:54:17.890Z,95190.66
2018-05-25T14:56:43.920Z,95187.29
2018-05-25T14:59:09.930Z,95188.91
2018-05-25T15:01:35.938Z,95193.05
2018-05-25T15:04:01.928Z,95185.17
2018-05-25T15:06:27.959Z,95180.45
2018-05-25T15:08:53.962Z,95192.11
2018-05-25T15:11:19.944Z,95182.88
2018-05-25T15:13:45.956Z,95179.20
2018-05-25T15:16:11.912Z,95176.84
2018-05-25T15:18:37.896Z,95178.27
2018-05-25T15:21:03.886Z,95171.80
2018-05-25T15:23:29.999Z,95164.28
2018-05-25T15:25:55.991Z,95163.91
2018-05-25T15:28:21.986Z,95161.55
2018-05-25T15:30:48.028Z,95162.80
2018-05-25T15:33:13.991Z,95158.86
2018-05-25T15:35:39.972Z,95150.00
2018-05-25T15:38:06.024Z,95162.39
2018-05-25T15:40:32.013Z,95165.59
2018-05-25T15:42:59.211Z,95164.81
2018-05-25T15:45:23.983Z,95172.73
2018-05-25T15:47:49.973Z,95176.33
2018-05-25T15:50:15.947Z,95183.23
2018-05-25T15:52:41.964Z,95186.67
2018-05-25T15:55:07.942Z,95188.69
2018-05-25T15:57:33.967Z,95188.45
2018-05-25T15:59:59.959Z,95194.79
2018-05-25T16:02:25.968Z,95193.00
2018-05-25T16:04:51.925Z,95193.41
2018-05-25T16:07:18.607Z,95192.39
2018-05-25T16:09:45.233Z,95192.53
2018-05-25T16:12:11.215Z,95199.30
2018-05-25T16:14:37.235Z,95198.33
2018-05-25T16:17:03.285Z,95196.68
2018-05-25T16:19:29.275Z,95199.11
2018-05-25T16:21:55.265Z,95198.73
2018-05-25T16:24:21.252Z,95199.30
2018-05-25T16:26:47.262Z,95205.27
2018-05-25T16:29:13.248Z,95204.83
2018-05-25T16:31:39.237Z,95207.80
2018-05-25T16:34:05.239Z,95205.84
2018-05-25T16:36:31.208Z,95209.41
2018-05-25T16:38:57.192Z,95212.58
2018-05-25T16:41:23.176Z,95217.09
2018-05-25T16:43:50.419Z,95220.46
2018-05-25T16:46:15.297Z,95223.97
2018-05-25T16:48:41.201Z,95232.05
2018-05-25T16:51:07.286Z,95239.09
2018-05-25T16:53:33.264Z,95239.87
2018-05-25T16:55:59.256Z,95237.11
2018-05-25T16:58:25.238Z,95241.25
2018-05-25T17:00:51.230Z,95241.66
2018-05-25T17:03:17.247Z,95239.70
2018-05-25T17:05:43.236Z,95243.04
2018-05-25T17:08:09.223Z,95244.82
2018-05-25T17:10:35.193Z,95246.38
2018-05-25T17:13:01.179Z,95249.73
2018-05-25T17:15:27.199Z,95248.93
2018-05-25T17:17:53.170Z,95251.69
2018-05-25T17:20:19.145Z,95242.43
2018-05-25T17:22:45.127Z,95248.52
2018-05-25T17:25:11.124Z,95248.70
2018-05-25T17:27:37.110Z,95244.22
2018-05-25T17:30:03.107Z,95253.65
2018-05-25T17:32:29.109Z,95253.04
2018-05-25T17:34:55.100Z,95259.55
2018-05-25T17:37:21.084Z,95264.45
2018-05-25T17:39:47.086Z,95276.31
2018-05-25T17:42:13.120Z,95283.63
2018-05-25T17:44:39.081Z,95284.44
2018-05-25T17:47:05.094Z,95286.80
2018-05-25T17:49:31.047Z,95298.25
2018-05-25T17:51:57.033Z,95312.47
2018-05-25T17:54:23.019Z,95314.99
2018-05-25T17:56:49.034Z,95341.06
2018-05-25T17:59:15.042Z,95345.05
2018-05-25T18:01:40.993Z,95359.83
2018-05-25T18:04:07.017Z,95356.88
2018-05-25T18:06:32.995Z,95359.67
2018-05-25T18:08:59.023Z,95365.36
2018-05-25T18:11:25.011Z,95377.95
2018-05-25T18:13:51.004Z,95377.15
2018-05-25T18:16:16.989Z,95379.70
2018-05-25T18:18:42.977Z,95389.95
2018-05-25T18:21:08.957Z,95395.06
2018-05-25T18:23:34.935Z,95399.21
2018-05-25T18:26:00.930Z,95394.09
2018-05-25T18:28:26.917Z,95393.28
2018-05-25T18:30:52.892Z,95388.93
2018-05-25T18:33:18.885Z,95384.21
2018-05-25T18:35:44.871Z,95397.22
2018-05-25T18:38:10.855Z,95410.22
2018-05-25T18:40:36.845Z,95428.13
2018-05-25T18:43:02.828Z,95440.77
2018-05-25T18:45:28.817Z,95455.95
2018-05-25T18:47:54.853Z,95460.50
2018-05-25T18:50:20.835Z,95467.00
2018-05-25T18:52:46.886Z,95464.24
2018-05-25T18:55:12.875Z,95461.89
2018-05-25T18:57:38.859Z,95456.73
2018-05-25T19:00:04.921Z,95460.50
2018-05-25T19:02:30.899Z,95469.36
2018-05-25T19:04:56.982Z,95464.24
2018-05-25T19:07:22.943Z,95464.41
2018-05-25T19:09:48.946Z,95469.12
2018-05-25T19:12:14.927Z,95469.94
2018-05-25T19:14:40.949Z,95474.08
2018-05-25T19:17:06.931Z,95471.72
2018-05-25T19:19:32.914Z,95473.27
2018-05-25T19:21:58.899Z,95466.36
2018-05-25T19:24:24.886Z,95459.08
2018-05-25T19:26:50.955Z,95446.66
2018-05-25T19:29:16.916Z,95446.41
2018-05-25T19:31:42.899Z,95443.66
2018-05-25T19:34:08.884Z,95438.94
2018-05-25T19:36:34.870Z,95444.46
2018-05-25T19:39:00.880Z,95444.63
2018-05-25T19:41:26.896Z,95449.17
2018-05-25T19:43:52.883Z,95442.84
2018-05-25T19:46:18.865Z,95436.75
2018-05-25T19:48:44.885Z,95418.80
2018-05-25T19:51:10.877Z,95401.03
2018-05-25T19:53:36.867Z,95399.05
2018-05-25T19:56:02.945Z,95417.01
2018-05-25T19:58:28.942Z,95417.98
2018-05-25T20:00:54.926Z,95420.37
2018-05-25T20:03:20.941Z,95423.70
2018-05-25T20:05:46.919Z,95429.03
2018-05-25T20:08:12.948Z,95426.67
2018-05-25T20:10:38.977Z,95426.06
2018-05-25T20:13:04.969Z,95424.89
2018-05-25T20:15:31.224Z,95435.16
2018-05-25T20:17:57.144Z,95433.98
2018-05-25T20:20:23.166Z,95431.80
2018-05-25T20:22:49.146Z,95430.25
2018-05-25T20:25:15.173Z,95427.65
2018-05-25T20:27:41.162Z,95422.73
2018-05-25T20:30:07.214Z,95420.70
2018-05-25T20:32:33.195Z,95423.47
2018-05-25T20:34:59.202Z,95415.78
2018-05-25T20:37:25.151Z,95413.77
2018-05-25T20:39:51.423Z,95412.58
2018-05-25T20:42:17.403Z,95423.43
2018-05-25T20:44:43.410Z,95428.75
2018-05-25T20:47:09.377Z,95431.10
2018-05-25T20:49:35.366Z,95438.41
2018-05-25T20:52:01.365Z,95436.42
2018-05-25T20:54:27.371Z,95436.02
2018-05-25T20:56:53.342Z,95438.38
2018-05-25T20:59:19.337Z,95435.20
2018-05-25T21:01:45.334Z,95435.77
2018-05-25T21:04:13.248Z,95440.52
2018-05-25T21:06:39.232Z,95438.73
2018-05-25T21:09:05.216Z,95443.85
2018-05-25T21:11:31.203Z,95447.19
2018-05-25T21:13:57.193Z,95445.41
2018-05-25T21:16:23.179Z,95458.64
2018-05-25T21:18:49.202Z,95459.20
2018-05-25T21:21:15.188Z,95464.93
2018-05-25T21:23:41.172Z,95473.22
2018-05-25T21:26:07.157Z,95473.37
2018-05-25T21:28:33.136Z,95467.86
2018-05-25T21:30:59.114Z,95467.86
2018-05-25T21:33:25.093Z,95462.53
2018-05-25T21:35:51.070Z,95464.89
2018-05-25T21:38:17.065Z,95457.58
2018-05-25T21:40:43.070Z,95472.36
2018-05-25T21:43:09.052Z,95465.45
2018-05-25T21:45:35.032Z,95464.08
2018-05-25T21:48:01.019Z,95463.67
2018-05-25T21:50:27.003Z,95471.95
2018-05-25T21:52:52.994Z,95464.25
2018-05-25T21:55:18.979Z,95464.84
2018-05-25T21:57:44.959Z,95458.92
2018-05-25T22:00:10.981Z,95457.30
2018-05-25T22:02:36.955Z,95456.33
2018-05-25T22:05:02.944Z,95471.75
2018-05-25T22:07:28.929Z,95484.34
2018-05-25T22:09:54.908Z,95477.63
2018-05-25T22:12:20.906Z,95476.25
2018-05-25T22:14:46.887Z,95476.25
2018-05-25T22:17:12.916Z,95477.63
2018-05-25T22:19:38.905Z,95473.25
2018-05-25T22:22:04.895Z,95476.42
2018-05-25T22:24:30.885Z,95472.07
2018-05-25T22:26:56.873Z,95473.83
2018-05-25T22:29:22.863Z,95469.69
2018-05-25T22:31:48.879Z,95468.30
2018-05-25T22:34:14.868Z,95468.91
2018-05-25T22:36:40.846Z,95471.67
2018-05-25T22:39:06.824Z,95471.67
2018-05-25T22:41:32.807Z,95470.86
2018-05-25T22:43:58.798Z,95470.86
2018-05-25T22:46:24.773Z,95470.05
2018-05-25T22:48:50.753Z,95475.16
2018-05-25T22:51:16.735Z,95480.31
2018-05-25T22:53:42.725Z,95485.02
2018-05-25T22:56:08.708Z,95481.86
2018-05-25T22:58:34.737Z,95481.86
2018-05-25T23:01:00.733Z,95481.45
2018-05-25T23:03:26.671Z,95474.14
2018-05-25T23:05:52.651Z,95471.98
2018-05-25T23:08:18.632Z,95471.17
2018-05-25T23:10:44.615Z,95472.96
2018-05-25T23:13:10.597Z,95474.91
2018-05-25T23:15:36.578Z,95476.70
2018-05-25T23:18:02.569Z,95480.44
2018-05-25T23:20:28.630Z,95487.34
2018-05-25T23:22:54.619Z,95489.89
2018-05-25T23:25:20.612Z,95491.64
2018-05-25T23:27:46.590Z,95491.27
2018-05-25T23:30:12.615Z,95489.08
2018-05-25T23:32:38.593Z,95488.67
2018-05-25T23:35:04.584Z,95475.84
2018-05-25T23:37:30.567Z,95477.23
2018-05-25T23:39:56.579Z,95472.68
2018-05-25T23:42:22.574Z,95480.18
2018-05-25T23:44:48.560Z,95481.94
2018-05-25T23:47:14.555Z,95478.80
2018-05-25T23:49:40.538Z,95481.16
2018-05-25T23:52:06.520Z,95478.20
2018-05-25T23:54:32.511Z,95471.49
2018-05-25T23:56:58.487Z,95469.52
2018-05-25T23:59:24.473Z,95458.66
